Pickering, Missouri
Current Conditions -  °F | °C
As of 7:15 AM on Thursday 18 Dec 2014 (Local Time) from KICL Reporting Station
Light Snow Light Snow  
Wind Chill: 21°   Ceiling: 2400
Heat Index: 27°   Visibility: 2.5mi
Dew Point: 25°   Wind: 5mph
Humidity: 93%   Direction: 70°ENE
Pressure: 30.26"   Gusts: NA
Location:  40.45°N, 94.84°W
Report Text: KICL 181315Z AUTO 07004KT 2 1/2SM -SN FEW006 FEW014 OVC024 M03/M04 A3026 RMK AO2
Loading
Personal Weather Stations






























Interactive Weather Map New forecast layout! Learn more

10-Day Weather Forecast

Advertisements
Track Severe Weather on mobile